EmailTwitter


Observations de surface / Québec / CYUL (71627)

Régions: Québec | Canada | États-Unis | Europe | France | UK | Elsewhere
Station
Affichage
Infos & localisation pour CYUL (71627) | Aide pour décoder les METARs

Observations prises le 2017-05-28 à 21H00 UTC à MONTREAL INTL A, QB (CYUL)

Etat du ciel: partiellement nuageux.

Température: 26.0 Celsius

Point de rosée: 10.0 Celsius

Humidité relative: 37%

Indice Humidex: 27.

Vents: Sud-est à 20 km/h ou 11 noeuds.

Pression au niveau moyen de la mer: 101.01 kilopascals.

Calage altimétrique: 100.98 kilopascals ou 29.82 pouces de mercure.

Visibilité horizontale: 30.00 milles terrestres ou 48.00 kilomètres.

Hauteur du plafond: 7315 mètres ( 24000 pieds ).

Observation METAR:

CYUL 282100Z 15011KT 30SM FEW060TCU FEW080 BKN240 26/10 A2982 RMK TCU1AC1CI6

TCU TR AC TR SLP101 DENSITY ALT 1400FT=